Marine-shuttle — JG4603 — position and weather

sailwx.info

Track history (hours):
 
Tides and Currents Weather Stations Pressure Air Temp Water Temp Dewpoint Dewpoint Depression Visibility Wind Speed Wind Dir Waves Ship Positions

Marine-shuttle

Last reported at 2017-Nov-19 10:50 UTC. Time now 2017-Nov-21 17:44 UTC.
Position N 35°27' E 139°39'.

Length 49 m; draft 2.8 m.

Type: Passenger vessel. MMSI: 431000517.

Date/timePositionNaut miles runAvg speedWind from/ knotsBaromVisibWave heightAir tempDewpointWater temp
2017-Nov-19 10:50N 35°27' E 139°39'2 7.4
2017-Nov-19 10:30N 35°28' E 139°42'3 5.4
2017-Nov-19 10:01N 35°27' E 139°39'1 1.0
2017-Nov-19 09:30N 35°27' E 139°39'0 0.0
2017-Nov-19 09:00N 35°27' E 139°39'0 0.0
2017-Nov-19 08:30N 35°27' E 139°39'1 2.2
2017-Nov-19 08:00N 35°28' E 139°40'1 2.2
2017-Nov-19 07:30N 35°27' E 139°39'3 5.6
2017-Nov-19 07:00N 35°28' E 139°42'3 5.6
2017-Nov-19 06:30N 35°27' E 139°39'1 1.4
2017-Nov-19 06:01N 35°27' E 139°39'2 4.0
2017-Nov-19 05:30N 35°27' E 139°41'2 3.9
2017-Nov-19 05:00N 35°27' E 139°39'1 1.7
2017-Nov-19 04:30N 35°27' E 139°40'1 1.7
2017-Nov-19 04:00N 35°27' E 139°39'1 1.6
2017-Nov-19 03:30N 35°27' E 139°39'1 2.9
2017-Nov-19 03:00N 35°27' E 139°41'2 3.3
2017-Nov-19 02:30N 35°27' E 139°39'2 4.6
2017-Nov-19 02:00N 35°28' E 139°41'2 3.7
2017-Nov-19 01:30N 35°27' E 139°39'1 1.1
2017-Nov-19 01:00N 35°27' E 139°39'0 0.0
2017-Nov-19 00:30N 35°27' E 139°39'0 0.0
2017-Nov-18 10:59N 35°27' E 139°39'3 6.0
2017-Nov-18 10:31N 35°28' E 139°42'3 6.0
2017-Nov-18 10:01N 35°27' E 139°39'0 0.9
2017-Nov-18 09:31N 35°27' E 139°39'0 0.0
2017-Nov-18 09:01N 35°27' E 139°39'0 0.0
2017-Nov-18 08:31N 35°27' E 139°39'1 1.7
2017-Nov-18 08:01N 35°28' E 139°39'1 1.7
2017-Nov-18 07:31N 35°27' E 139°39'3 5.7
2017-Nov-18 07:01N 35°28' E 139°42'3 5.6
2017-Nov-18 06:30N 35°27' E 139°39'0 0.7
2017-Nov-18 06:01N 35°27' E 139°39'2 4.3
2017-Nov-18 05:31N 35°27' E 139°42'2 4.5
2017-Nov-18 05:01N 35°27' E 139°39'1 1.8
2017-Nov-18 04:31N 35°27' E 139°40'1 1.8
2017-Nov-18 04:01N 35°27' E 139°39'1 2.1
2017-Nov-18 03:31N 35°28' E 139°40'1 1.7
2017-Nov-18 03:01N 35°27' E 139°41'1 2.7
2017-Nov-18 02:31N 35°27' E 139°39'2 3.8
2017-Nov-18 02:01N 35°28' E 139°41'1 1.9
2017-Nov-18 01:31N 35°27' E 139°40'1 1.9
2017-Nov-18 01:01N 35°27' E 139°39'0 0.0
2017-Nov-18 00:31N 35°27' E 139°39'0 0.0
2017-Nov-17 09:00N 35°27' E 139°39'1 1.7
2017-Nov-17 08:30N 35°27' E 139°40'1 1.7
2017-Nov-17 08:00N 35°27' E 139°39'1 1.2
2017-Nov-17 07:30N 35°27' E 139°39'1 2.7
2017-Nov-17 07:00N 35°27' E 139°41'2 3.2
2017-Nov-17 06:30N 35°27' E 139°39'0 0.0
2017-Nov-17 06:00N 35°27' E 139°39'1 1.4
2017-Nov-17 05:30N 35°27' E 139°39'1 2.9
2017-Nov-17 05:00N 35°27' E 139°41'2 3.2
2017-Nov-17 04:30N 35°27' E 139°39'0 0.0
2017-Nov-17 04:00N 35°27' E 139°39'1 1.6
2017-Nov-17 03:30N 35°27' E 139°39'1 2.2
2017-Nov-17 03:00N 35°27' E 139°41'1 2.8
2017-Nov-17 02:30N 35°27' E 139°39'2 4.0
2017-Nov-17 02:00N 35°28' E 139°41'1 2.2
2017-Nov-17 01:30N 35°27' E 139°40'1 1.8
2017-Nov-17 01:00N 35°27' E 139°39'0 0.0
2017-Nov-17 00:30N 35°27' E 139°39'0 0.0
2017-Nov-16 09:00N 35°27' E 139°39'1 1.7
2017-Nov-16 08:30N 35°27' E 139°40'1 1.7
2017-Nov-16 08:00N 35°27' E 139°39'1 1.4
2017-Nov-16 07:30N 35°27' E 139°39'2 3.7
2017-Nov-16 07:00N 35°27' E 139°42'2 4.0
2017-Nov-16 06:30N 35°27' E 139°39'0 0.0
2017-Nov-16 06:00N 35°27' E 139°39'0 0.0
2017-Nov-16 05:30N 35°27' E 139°39'3 5.8
2017-Nov-16 05:00N 35°28' E 139°42'3 5.8
2017-Nov-16 04:30N 35°27' E 139°39'0 0.0
2017-Nov-16 04:00N 35°27' E 139°39'0 0.3
2017-Nov-16 03:30N 35°27' E 139°39'2 3.9
2017-Nov-16 03:00N 35°27' E 139°42'2 4.1
2017-Nov-16 02:30N 35°27' E 139°39'0 0.0
2017-Nov-15 11:00N 35°27' E 139°39'3 5.6
2017-Nov-15 10:31N 35°28' E 139°42'3 5.5
2017-Nov-15 10:00N 35°27' E 139°39'0 0.9
2017-Nov-15 09:31N 35°27' E 139°39'0 0.0
2017-Nov-15 09:00N 35°27' E 139°39'1 1.8
2017-Nov-15 08:30N 35°27' E 139°40'1 1.8
2017-Nov-15 08:00N 35°27' E 139°39'1 1.6
2017-Nov-15 07:31N 35°27' E 139°39'1 2.8
2017-Nov-15 07:00N 35°27' E 139°41'2 3.2
2017-Nov-15 06:31N 35°27' E 139°39'0 0.0
2017-Nov-15 06:01N 35°27' E 139°39'1 2.5
2017-Nov-15 05:30N 35°28' E 139°40'1 2.5
2017-Nov-15 05:00N 35°27' E 139°41'2 3.2
2017-Nov-15 04:31N 35°27' E 139°39'0 0.0
2017-Nov-15 04:01N 35°27' E 139°39'0 0.4
2017-Nov-15 03:31N 35°27' E 139°39'2 3.9
2017-Nov-15 03:00N 35°27' E 139°42'2 4.1
2017-Nov-15 02:31N 35°27' E 139°39'2 3.5
2017-Nov-15 02:00N 35°28' E 139°41'1 1.7
2017-Nov-15 01:31N 35°27' E 139°40'1 0.1
2017-Nov-14 10:57N 35°27' E 139°39'3 6.4
2017-Nov-14 10:31N 35°28' E 139°42'3 5.6
2017-Nov-14 10:00N 35°27' E 139°39'1 1.0
2017-Nov-14 09:30N 35°27' E 139°39'0 0.0
2017-Nov-14 09:00N 35°27' E 139°39'1 1.7
2017-Nov-14 08:30N 35°27' E 139°40'1 1.7
2017-Nov-14 08:00N 35°27' E 139°39'0 0.0
2017-Nov-14 07:30N 35°27' E 139°39'0 0.0
2017-Nov-14 07:00N 35°27' E 139°39'0 0.0
2017-Nov-14 06:30N 35°27' E 139°39'0 0.0
2017-Nov-14 06:00N 35°27' E 139°39'0 0.1
2017-Nov-14 05:30N 35°27' E 139°39'2 4.2
2017-Nov-14 05:00N 35°27' E 139°42'2 4.3
2017-Nov-14 04:30N 35°27' E 139°39'0 0.0
2017-Nov-14 04:00N 35°27' E 139°39'1 1.2
2017-Nov-14 03:30N 35°27' E 139°39'1 2.8
2017-Nov-14 03:00N 35°27' E 139°41'2 3.2
2017-Nov-14 02:30N 35°27' E 139°39'2 0.1
2017-Nov-13 02:00N 35°28' E 139°40'1 1.4
2017-Nov-13 01:30N 35°27' E 139°40'1 0.1
2017-Nov-12 11:00N 35°27' E 139°39'3 5.8
2017-Nov-12 10:31N 35°28' E 139°42'3 6.0
2017-Nov-12 10:00N 35°27' E 139°39'0 1.0
2017-Nov-12 09:31N 35°27' E 139°39'0 0.0
2017-Nov-12 09:00N 35°27' E 139°39'0 0.0
2017-Nov-12 08:30N 35°27' E 139°39'1 1.8
2017-Nov-12 08:01N 35°28' E 139°40'1 1.8
2017-Nov-12 07:31N 35°27' E 139°39'2 3.1
2017-Nov-12 07:00N 35°27' E 139°41'2 3.1
2017-Nov-12 06:30N 35°27' E 139°39'2 4.3
2017-Nov-12 06:00N 35°28' E 139°41'2 3.1
2017-Nov-12 05:31N 35°27' E 139°39'1 1.4
2017-Nov-12 05:00N 35°27' E 139°39'1 1.7
2017-Nov-12 04:30N 35°27' E 139°40'1 1.7
2017-Nov-12 04:00N 35°27' E 139°39'1 1.3
2017-Nov-12 03:31N 35°27' E 139°39'1 2.3
2017-Nov-12 03:00N 35°27' E 139°41'1 2.9
2017-Nov-12 02:31N 35°27' E 139°39'2 3.3
2017-Nov-12 02:00N 35°28' E 139°40'1 1.5
2017-Nov-12 01:31N 35°27' E 139°40'1 1.8
2017-Nov-12 01:01N 35°27' E 139°39'0 0.0
2017-Nov-12 00:30N 35°27' E 139°39'0 0.0
2017-Nov-11 10:53N 35°27' E 139°39'2 4.4
2017-Nov-11 10:31N 35°28' E 139°41'1 2.0
2017-Nov-11 10:01N 35°27' E 139°40'1 1.9
2017-Nov-11 09:31N 35°27' E 139°39'0 0.1
2017-Nov-11 09:01N 35°27' E 139°39'0 0.0
2017-Nov-11 08:31N 35°27' E 139°39'1 1.7
2017-Nov-11 08:01N 35°28' E 139°40'1 1.7
2017-Nov-11 07:31N 35°27' E 139°39'3 5.7
2017-Nov-11 07:01N 35°28' E 139°42'3 5.7
2017-Nov-11 06:31N 35°27' E 139°39'0 0.9
2017-Nov-11 06:01N 35°27' E 139°39'2 4.1
2017-Nov-11 05:31N 35°27' E 139°42'2 4.3
2017-Nov-11 05:01N 35°27' E 139°39'1 1.5
2017-Nov-11 04:31N 35°27' E 139°39'1 1.5
2017-Nov-11 04:01N 35°27' E 139°39'0 0.8
2017-Nov-11 03:31N 35°27' E 139°39'1 2.9
2017-Nov-11 03:01N 35°27' E 139°41'2 3.4
2017-Nov-11 02:31N 35°27' E 139°39'2 3.3
2017-Nov-11 02:01N 35°28' E 139°40'1 1.5
2017-Nov-11 01:31N 35°27' E 139°40'1 1.8
2017-Nov-11 01:00N 35°27' E 139°39'0 0.0
2017-Nov-11 00:31N 35°27' E 139°39'0 0.0
2017-Nov-10 09:01N 35°27' E 139°39'0 0.0
2017-Nov-10 09:00N 35°27' E 139°39'1 1.7
2017-Nov-10 08:30N 35°27' E 139°40'1 1.7
2017-Nov-10 08:00N 35°27' E 139°39'0 0.5
2017-Nov-10 07:30N 35°27' E 139°39'2 3.7
2017-Nov-10 07:00N 35°27' E 139°42'2 4.0
2017-Nov-10 06:30N 35°27' E 139°39'0 0.0
2017-Nov-10 06:00N 35°27' E 139°39'0 0.8
2017-Nov-10 05:31N 35°27' E 139°39'3 5.3
2017-Nov-10 05:00N 35°28' E 139°42'3 5.7
2017-Nov-10 04:30N 35°27' E 139°39'0 0.0
2017-Nov-10 04:00N 35°27' E 139°39'1 1.1
2017-Nov-10 03:30N 35°27' E 139°39'2 3.3
2017-Nov-10 03:00N 35°27' E 139°41'2 3.7
2017-Nov-10 02:30N 35°27' E 139°39'2 3.3
2017-Nov-10 02:00N 35°28' E 139°40'1 1.5
2017-Nov-10 01:30N 35°27' E 139°40'  
Track history (hours):
 
Tides and Currents Weather Stations Pressure Air Temp Water Temp Dewpoint Dewpoint Depression Visibility Wind Speed Wind Dir Waves Ship Positions

Marine-shuttle

Last reported at 2017-Nov-19 10:50 UTC. Time now 2017-Nov-21 17:44 UTC.
Position N 35°27' E 139°39'.

Length 49 m; draft 2.8 m.

Type: Passenger vessel. MMSI: 431000517.

Date/timePositionNaut miles runAvg speedWind from/ knotsBaromVisibWave heightAir tempDewpointWater temp
2017-Nov-19 10:50N 35°27' E 139°39'2 7.4
2017-Nov-19 10:30N 35°28' E 139°42'3 5.4
2017-Nov-19 10:01N 35°27' E 139°39'1 1.0
2017-Nov-19 09:30N 35°27' E 139°39'0 0.0
2017-Nov-19 09:00N 35°27' E 139°39'0 0.0
2017-Nov-19 08:30N 35°27' E 139°39'1 2.2
2017-Nov-19 08:00N 35°28' E 139°40'1 2.2
2017-Nov-19 07:30N 35°27' E 139°39'3 5.6
2017-Nov-19 07:00N 35°28' E 139°42'3 5.6
2017-Nov-19 06:30N 35°27' E 139°39'1 1.4
2017-Nov-19 06:01N 35°27' E 139°39'2 4.0
2017-Nov-19 05:30N 35°27' E 139°41'2 3.9
2017-Nov-19 05:00N 35°27' E 139°39'1 1.7
2017-Nov-19 04:30N 35°27' E 139°40'1 1.7
2017-Nov-19 04:00N 35°27' E 139°39'1 1.6
2017-Nov-19 03:30N 35°27' E 139°39'1 2.9
2017-Nov-19 03:00N 35°27' E 139°41'2 3.3
2017-Nov-19 02:30N 35°27' E 139°39'2 4.6
2017-Nov-19 02:00N 35°28' E 139°41'2 3.7
2017-Nov-19 01:30N 35°27' E 139°39'1 1.1
2017-Nov-19 01:00N 35°27' E 139°39'0 0.0
2017-Nov-19 00:30N 35°27' E 139°39'0 0.0
2017-Nov-18 10:59N 35°27' E 139°39'3 6.0
2017-Nov-18 10:31N 35°28' E 139°42'3 6.0
2017-Nov-18 10:01N 35°27' E 139°39'0 0.9
2017-Nov-18 09:31N 35°27' E 139°39'0 0.0
2017-Nov-18 09:01N 35°27' E 139°39'0 0.0
2017-Nov-18 08:31N 35°27' E 139°39'1 1.7
2017-Nov-18 08:01N 35°28' E 139°39'1 1.7
2017-Nov-18 07:31N 35°27' E 139°39'3 5.7
2017-Nov-18 07:01N 35°28' E 139°42'3 5.6
2017-Nov-18 06:30N 35°27' E 139°39'0 0.7
2017-Nov-18 06:01N 35°27' E 139°39'2 4.3
2017-Nov-18 05:31N 35°27' E 139°42'2 4.5
2017-Nov-18 05:01N 35°27' E 139°39'1 1.8
2017-Nov-18 04:31N 35°27' E 139°40'1 1.8
2017-Nov-18 04:01N 35°27' E 139°39'1 2.1
2017-Nov-18 03:31N 35°28' E 139°40'1 1.7
2017-Nov-18 03:01N 35°27' E 139°41'1 2.7
2017-Nov-18 02:31N 35°27' E 139°39'2 3.8
2017-Nov-18 02:01N 35°28' E 139°41'1 1.9
2017-Nov-18 01:31N 35°27' E 139°40'1 1.9
2017-Nov-18 01:01N 35°27' E 139°39'0 0.0
2017-Nov-18 00:31N 35°27' E 139°39'0 0.0
2017-Nov-17 09:00N 35°27' E 139°39'1 1.7
2017-Nov-17 08:30N 35°27' E 139°40'1 1.7
2017-Nov-17 08:00N 35°27' E 139°39'1 1.2
2017-Nov-17 07:30N 35°27' E 139°39'1 2.7
2017-Nov-17 07:00N 35°27' E 139°41'2 3.2
2017-Nov-17 06:30N 35°27' E 139°39'0 0.0
2017-Nov-17 06:00N 35°27' E 139°39'1 1.4
2017-Nov-17 05:30N 35°27' E 139°39'1 2.9
2017-Nov-17 05:00N 35°27' E 139°41'2 3.2
2017-Nov-17 04:30N 35°27' E 139°39'0 0.0
2017-Nov-17 04:00N 35°27' E 139°39'1 1.6
2017-Nov-17 03:30N 35°27' E 139°39'1 2.2
2017-Nov-17 03:00N 35°27' E 139°41'1 2.8
2017-Nov-17 02:30N 35°27' E 139°39'2 4.0
2017-Nov-17 02:00N 35°28' E 139°41'1 2.2
2017-Nov-17 01:30N 35°27' E 139°40'1 1.8
2017-Nov-17 01:00N 35°27' E 139°39'0 0.0
2017-Nov-17 00:30N 35°27' E 139°39'0 0.0
2017-Nov-16 09:00N 35°27' E 139°39'1 1.7
2017-Nov-16 08:30N 35°27' E 139°40'1 1.7
2017-Nov-16 08:00N 35°27' E 139°39'1 1.4
2017-Nov-16 07:30N 35°27' E 139°39'2 3.7
2017-Nov-16 07:00N 35°27' E 139°42'2 4.0
2017-Nov-16 06:30N 35°27' E 139°39'0 0.0
2017-Nov-16 06:00N 35°27' E 139°39'0 0.0
2017-Nov-16 05:30N 35°27' E 139°39'3 5.8
2017-Nov-16 05:00N 35°28' E 139°42'3 5.8
2017-Nov-16 04:30N 35°27' E 139°39'0 0.0
2017-Nov-16 04:00N 35°27' E 139°39'0 0.3
2017-Nov-16 03:30N 35°27' E 139°39'2 3.9
2017-Nov-16 03:00N 35°27' E 139°42'2 4.1
2017-Nov-16 02:30N 35°27' E 139°39'0 0.0
2017-Nov-15 11:00N 35°27' E 139°39'3 5.6
2017-Nov-15 10:31N 35°28' E 139°42'3 5.5
2017-Nov-15 10:00N 35°27' E 139°39'0 0.9
2017-Nov-15 09:31N 35°27' E 139°39'0 0.0
2017-Nov-15 09:00N 35°27' E 139°39'1 1.8
2017-Nov-15 08:30N 35°27' E 139°40'1 1.8
2017-Nov-15 08:00N 35°27' E 139°39'1 1.6
2017-Nov-15 07:31N 35°27' E 139°39'1 2.8
2017-Nov-15 07:00N 35°27' E 139°41'2 3.2
2017-Nov-15 06:31N 35°27' E 139°39'0 0.0
2017-Nov-15 06:01N 35°27' E 139°39'1 2.5
2017-Nov-15 05:30N 35°28' E 139°40'1 2.5
2017-Nov-15 05:00N 35°27' E 139°41'2 3.2
2017-Nov-15 04:31N 35°27' E 139°39'0 0.0
2017-Nov-15 04:01N 35°27' E 139°39'0 0.4
2017-Nov-15 03:31N 35°27' E 139°39'2 3.9
2017-Nov-15 03:00N 35°27' E 139°42'2 4.1
2017-Nov-15 02:31N 35°27' E 139°39'2 3.5
2017-Nov-15 02:00N 35°28' E 139°41'1 1.7
2017-Nov-15 01:31N 35°27' E 139°40'1 0.1
2017-Nov-14 10:57N 35°27' E 139°39'3 6.4
2017-Nov-14 10:31N 35°28' E 139°42'3 5.6
2017-Nov-14 10:00N 35°27' E 139°39'1 1.0
2017-Nov-14 09:30N 35°27' E 139°39'0 0.0
2017-Nov-14 09:00N 35°27' E 139°39'1 1.7
2017-Nov-14 08:30N 35°27' E 139°40'1 1.7
2017-Nov-14 08:00N 35°27' E 139°39'0 0.0
2017-Nov-14 07:30N 35°27' E 139°39'0 0.0
2017-Nov-14 07:00N 35°27' E 139°39'0 0.0
2017-Nov-14 06:30N 35°27' E 139°39'0 0.0
2017-Nov-14 06:00N 35°27' E 139°39'0 0.1
2017-Nov-14 05:30N 35°27' E 139°39'2 4.2
2017-Nov-14 05:00N 35°27' E 139°42'2 4.3
2017-Nov-14 04:30N 35°27' E 139°39'0 0.0
2017-Nov-14 04:00N 35°27' E 139°39'1 1.2
2017-Nov-14 03:30N 35°27' E 139°39'1 2.8
2017-Nov-14 03:00N 35°27' E 139°41'2 3.2
2017-Nov-14 02:30N 35°27' E 139°39'2 0.1
2017-Nov-13 02:00N 35°28' E 139°40'1 1.4
2017-Nov-13 01:30N 35°27' E 139°40'1 0.1
2017-Nov-12 11:00N 35°27' E 139°39'3 5.8
2017-Nov-12 10:31N 35°28' E 139°42'3 6.0
2017-Nov-12 10:00N 35°27' E 139°39'0 1.0
2017-Nov-12 09:31N 35°27' E 139°39'0 0.0
2017-Nov-12 09:00N 35°27' E 139°39'0 0.0
2017-Nov-12 08:30N 35°27' E 139°39'1 1.8
2017-Nov-12 08:01N 35°28' E 139°40'1 1.8
2017-Nov-12 07:31N 35°27' E 139°39'2 3.1
2017-Nov-12 07:00N 35°27' E 139°41'2 3.1
2017-Nov-12 06:30N 35°27' E 139°39'2 4.3
2017-Nov-12 06:00N 35°28' E 139°41'2 3.1
2017-Nov-12 05:31N 35°27' E 139°39'1 1.4
2017-Nov-12 05:00N 35°27' E 139°39'1 1.7
2017-Nov-12 04:30N 35°27' E 139°40'1 1.7
2017-Nov-12 04:00N 35°27' E 139°39'1 1.3
2017-Nov-12 03:31N 35°27' E 139°39'1 2.3
2017-Nov-12 03:00N 35°27' E 139°41'1 2.9
2017-Nov-12 02:31N 35°27' E 139°39'2 3.3
2017-Nov-12 02:00N 35°28' E 139°40'1 1.5
2017-Nov-12 01:31N 35°27' E 139°40'1 1.8
2017-Nov-12 01:01N 35°27' E 139°39'0 0.0
2017-Nov-12 00:30N 35°27' E 139°39'0 0.0
2017-Nov-11 10:53N 35°27' E 139°39'2 4.4
2017-Nov-11 10:31N 35°28' E 139°41'1 2.0
2017-Nov-11 10:01N 35°27' E 139°40'1 1.9
2017-Nov-11 09:31N 35°27' E 139°39'0 0.1
2017-Nov-11 09:01N 35°27' E 139°39'0 0.0
2017-Nov-11 08:31N 35°27' E 139°39'1 1.7
2017-Nov-11 08:01N 35°28' E 139°40'1 1.7
2017-Nov-11 07:31N 35°27' E 139°39'3 5.7
2017-Nov-11 07:01N 35°28' E 139°42'3 5.7
2017-Nov-11 06:31N 35°27' E 139°39'0 0.9
2017-Nov-11 06:01N 35°27' E 139°39'2 4.1
2017-Nov-11 05:31N 35°27' E 139°42'2 4.3
2017-Nov-11 05:01N 35°27' E 139°39'1 1.5
2017-Nov-11 04:31N 35°27' E 139°39'1 1.5
2017-Nov-11 04:01N 35°27' E 139°39'0 0.8
2017-Nov-11 03:31N 35°27' E 139°39'1 2.9
2017-Nov-11 03:01N 35°27' E 139°41'2 3.4
2017-Nov-11 02:31N 35°27' E 139°39'2 3.3
2017-Nov-11 02:01N 35°28' E 139°40'1 1.5
2017-Nov-11 01:31N 35°27' E 139°40'1 1.8
2017-Nov-11 01:00N 35°27' E 139°39'0 0.0
2017-Nov-11 00:31N 35°27' E 139°39'0 0.0
2017-Nov-10 09:01N 35°27' E 139°39'0 0.0
2017-Nov-10 09:00N 35°27' E 139°39'1 1.7
2017-Nov-10 08:30N 35°27' E 139°40'1 1.7
2017-Nov-10 08:00N 35°27' E 139°39'0 0.5
2017-Nov-10 07:30N 35°27' E 139°39'2 3.7
2017-Nov-10 07:00N 35°27' E 139°42'2 4.0
2017-Nov-10 06:30N 35°27' E 139°39'0 0.0
2017-Nov-10 06:00N 35°27' E 139°39'0 0.8
2017-Nov-10 05:31N 35°27' E 139°39'3 5.3
2017-Nov-10 05:00N 35°28' E 139°42'3 5.7
2017-Nov-10 04:30N 35°27' E 139°39'0 0.0
2017-Nov-10 04:00N 35°27' E 139°39'1 1.1
2017-Nov-10 03:30N 35°27' E 139°39'2 3.3
2017-Nov-10 03:00N 35°27' E 139°41'2 3.7
2017-Nov-10 02:30N 35°27' E 139°39'2 3.3
2017-Nov-10 02:00N 35°28' E 139°40'1 1.5
2017-Nov-10 01:30N 35°27' E 139°40'  

Dump ship's entire track history